Time;durP1;ratioP1;P1;durP2;ratioP2;P2;SDS_P1;SDS_P2;PMS_P1;PMS_P2;Temp;Humidity;BMP_temperature;BMP_pressure;BME280_temperature;BME280_humidity;BME280_pressure;Samples;Min_cycle;Max_cycle;Signal;HPM_P1;HPM_P2
2021/04/01 00:00:11;;;;;;;;;;;;;;;20.54;42.32;101289.53;2115702;28;1932;-35
2021/04/01 00:01:12;;;;;;;;;;;;;;;20.60;42.52;101291.03;2113249;27;2317;-38
2021/04/01 00:02:13;;;;;;;;;;;;;;;20.65;43.02;101291.69;2111032;28;3215;-35
2021/04/01 00:03:14;;;;;;;;;;;;;;;20.69;43.09;101286.16;2113126;28;2947;-31
2021/04/01 00:04:15;;;;;;;;;;;;;;;20.73;43.43;101292.84;2113830;28;1806;-34
2021/04/01 00:05:16;;;;;;;;;;;;;;;20.76;43.48;101285.63;2113715;28;2420;-35
2021/04/01 00:06:16;;;;;;;;;;;;;;;20.78;43.65;101284.09;2112817;28;2378;-34
2021/04/01 00:07:17;;;;;;;;;;;;;;;20.79;43.75;101282.13;2114425;28;2144;-37
2021/04/01 00:08:18;;;;;;;;;;;;;;;20.80;43.76;101276.06;2115837;28;1222;-37
2021/04/01 00:09:19;;;;;;;;;;;;;;;20.82;43.98;101279.41;2111812;28;4209;-35
2021/04/01 00:10:19;;;;;;;;;;;;;;;20.83;44.08;101274.56;2113755;28;2655;-31
2021/04/01 00:11:20;;;;;;;;;;;;;;;20.83;44.04;101281.06;2113583;28;1227;-30
2021/04/01 00:12:21;;;;;;;;;;;;;;;20.85;44.29;101278.72;2111768;28;2303;-31
2021/04/01 00:13:22;;;;;;;;;;;;;;;20.86;44.33;101277.53;2112063;28;2248;-32
2021/04/01 00:14:25;;;;;;;;;;;;;;;20.87;44.23;101275.56;2113161;28;2231;-36
2021/04/01 00:15:26;;;;;;;;;;;;;;;20.88;44.54;101282.91;2114885;28;2136;-33
2021/04/01 00:16:27;;;;;;;;;;;;;;;20.88;44.50;101278.06;2112594;28;2171;-30
2021/04/01 00:17:28;;;;;;;;;;;;;;;20.89;44.43;101278.88;2114843;28;2509;-38
2021/04/01 00:18:28;;;;;;;;;;;;;;;20.91;44.56;101282.22;2113636;28;1151;-31
2021/04/01 00:19:29;;;;;;;;;;;;;;;20.90;44.54;101284.25;2110007;28;2287;-33
2021/04/01 00:20:30;;;;;;;;;;;;;;;20.91;44.67;101273.69;2114118;28;1585;-31
2021/04/01 00:21:31;;;;;;;;;;;;;;;20.92;44.78;101278.19;2115240;28;2180;-36
2021/04/01 00:22:32;;;;;;;;;;;;;;;20.91;44.69;101268.81;2111173;28;2398;-36
2021/04/01 00:23:33;;;;;;;;;;;;;;;20.91;44.70;101285.91;2113224;28;1385;-34
2021/04/01 00:24:33;;;;;;;;;;;;;;;20.93;44.98;101267.66;2115965;28;1207;-35
2021/04/01 00:25:35;;;;;;;;;;;;;;;20.93;45.01;101276.22;2114254;28;2324;-32
2021/04/01 00:26:36;;;;;;;;;;;;;;;20.94;44.93;101281.53;2113671;28;2300;-33
2021/04/01 00:27:37;;;;;;;;;;;;;;;20.94;45.06;101266.47;2114292;28;2356;-33
2021/04/01 00:28:38;;;;;;;;;;;;;;;20.95;45.11;101265.28;2115710;28;1808;-36
2021/04/01 00:29:39;;;;;;;;;;;;;;;20.95;45.19;101260.47;2113825;28;2109;-33
2021/04/01 00:30:39;;;;;;;;;;;;;;;20.96;45.18;101264.13;2113471;28;2484;-33
2021/04/01 00:31:43;;;;;;;;;;;;;;;20.96;45.28;101266.97;2115617;28;1320;-34
2021/04/01 00:32:46;;;;;;;;;;;;;;;20.96;45.21;101269.81;2115878;28;1898;-29
2021/04/01 00:33:47;;;;;;;;;;;;;;;20.96;45.34;101261.28;2115253;28;2574;-29
2021/04/01 00:34:48;;;;;;;;;;;;;;;20.96;45.36;101276.34;2114263;28;1325;-30
2021/04/01 00:35:49;;;;;;;;;;;;;;;20.97;45.33;101263.78;2113498;28;1688;-30
2021/04/01 00:36:49;;;;;;;;;;;;;;;20.96;45.45;101259.28;2113097;28;2121;-31
2021/04/01 00:37:50;;;;;;;;;;;;;;;20.97;45.46;101263.78;2115847;28;1137;-33
2021/04/01 00:38:51;;;;;;;;;;;;;;;20.97;45.50;101262.94;2114027;28;2204;-29
2021/04/01 00:39:52;;;;;;;;;;;;;;;20.98;45.58;101262.63;2115655;28;1759;-29
2021/04/01 00:40:53;;;;;;;;;;;;;;;20.99;45.49;101266.28;2112482;28;2263;-33
2021/04/01 00:41:55;;;;;;;;;;;;;;;20.99;45.45;101260.59;2115628;28;1476;-27
2021/04/01 00:42:56;;;;;;;;;;;;;;;20.99;45.61;101261.44;2115386;28;1311;-28
2021/04/01 00:43:57;;;;;;;;;;;;;;;21.00;45.58;101259.41;2115786;28;1218;-31
2021/04/01 00:44:58;;;;;;;;;;;;;;;20.99;45.79;101255.75;2115819;28;1203;-30
2021/04/01 00:46:00;;;;;;;;;;;;;;;21.00;45.66;101256.56;2113900;28;2376;-29
2021/04/01 00:47:01;;;;;;;;;;;;;;;21.00;45.78;101259.41;2115287;28;1756;-30
2021/04/01 00:48:02;;;;;;;;;;;;;;;21.00;45.77;101251.72;2106771;28;1368;-31
2021/04/01 00:49:03;;;;;;;;;;;;;;;21.00;45.82;101250.88;2102412;28;2111;-29
2021/04/01 00:50:03;;;;;;;;;;;;;;;20.99;45.89;101252.91;2112606;28;2130;-29
2021/04/01 00:51:04;;;;;;;;;;;;;;;21.01;45.99;101255.41;2112182;28;1410;-32
2021/04/01 00:52:05;;;;;;;;;;;;;;;21.01;45.87;101259.09;2111117;28;2110;-30
2021/04/01 00:53:06;;;;;;;;;;;;;;;21.02;45.91;101248.53;2110374;28;2322;-29
2021/04/01 00:54:07;;;;;;;;;;;;;;;21.02;45.88;101249.38;2115673;28;1317;-32
2021/04/01 00:55:08;;;;;;;;;;;;;;;21.03;46.02;101247.34;2111384;28;2257;-32
2021/04/01 00:56:08;;;;;;;;;;;;;;;21.03;46.10;101242.50;2112992;28;2493;-32
2021/04/01 00:57:09;;;;;;;;;;;;;;;21.02;46.06;101243.69;2110965;28;2124;-29
2021/04/01 00:58:10;;;;;;;;;;;;;;;21.03;46.03;101238.81;2114280;28;1594;-31
2021/04/01 00:59:11;;;;;;;;;;;;;;;21.05;46.24;101233.63;2114445;28;2065;-30
2021/04/01 01:00:11;;;;;;;;;;;;;;;21.04;46.05;101247.03;2114013;28;2166;-29
2021/04/01 01:02:32;;;;;;;;;;;;;;;21.05;46.37;101242.16;2111516;28;1545;-30
2021/04/01 01:03:33;;;;;;;;;;;;;;;21.05;46.32;101242.16;2115430;28;1470;-29
2021/04/01 01:04:33;;;;;;;;;;;;;;;21.04;46.42;101238.50;2115389;28;1606;-29
2021/04/01 01:05:35;;;;;;;;;;;;;;;21.05;46.25;101234.44;2115320;28;1394;-29
2021/04/01 01:06:36;;;;;;;;;;;;;;;21.06;46.31;101232.44;2112909;28;2489;-29
2021/04/01 01:07:37;;;;;;;;;;;;;;;21.05;46.41;101231.59;2112699;28;1431;-30
2021/04/01 01:08:37;;;;;;;;;;;;;;;21.06;46.37;101235.28;2115310;28;1516;-29
2021/04/01 01:09:38;;;;;;;;;;;;;;;21.06;46.50;101238.97;2113902;28;2004;-31
2021/04/01 01:10:39;;;;;;;;;;;;;;;21.05;46.53;101234.44;2112273;28;2155;-29
2021/04/01 01:11:40;;;;;;;;;;;;;;;21.07;46.41;101234.94;2115392;28;1141;-29
2021/04/01 01:12:40;;;;;;;;;;;;;;;21.07;46.63;101234.13;2114300;28;2333;-32
2021/04/01 01:13:41;;;;;;;;;;;;;;;21.07;46.59;101234.13;2115724;28;1234;-34
2021/04/01 01:14:42;;;;;;;;;;;;;;;21.08;46.54;101235.78;2115422;28;1754;-31
2021/04/01 01:15:43;;;;;;;;;;;;;;;21.07;46.50;101234.94;2112230;28;2193;-33
2021/04/01 01:16:44;;;;;;;;;;;;;;;21.08;46.58;101238.63;2110859;28;1166;-29
2021/04/01 01:17:45;;;;;;;;;;;;;;;21.08;46.74;101235.78;2115459;28;1790;-32
2021/04/01 01:18:49;;;;;;;;;;;;;;;21.08;46.75;101232.94;2113354;28;2264;-29
2021/04/01 01:19:50;;;;;;;;;;;;;;;21.08;46.67;101224.41;2111094;28;2376;-38
2021/04/01 01:20:51;;;;;;;;;;;;;;;21.08;46.83;101230.91;2112198;28;2078;-32
2021/04/01 01:21:52;;;;;;;;;;;;;;;21.09;46.65;101229.75;2114637;28;2135;-35
2021/04/01 01:22:52;;;;;;;;;;;;;;;21.09;46.85;101224.06;2113222;28;2154;-34
2021/04/01 01:23:53;;;;;;;;;;;;;;;21.09;46.85;101226.91;2115094;28;2103;-31
2021/04/01 01:24:54;;;;;;;;;;;;;;;21.11;46.77;101226.56;2107347;28;2399;-34
2021/04/01 01:25:55;;;;;;;;;;;;;;;21.11;46.84;101223.72;2111464;28;2264;-34
2021/04/01 01:26:56;;;;;;;;;;;;;;;21.11;46.86;101218.03;2111460;28;1677;-33
2021/04/01 01:27:56;;;;;;;;;;;;;;;21.10;46.85;101222.88;2109612;28;2181;-32
2021/04/01 01:28:57;;;;;;;;;;;;;;;21.10;47.03;101210.66;2113206;28;2230;-33
2021/04/01 01:29:58;;;;;;;;;;;;;;;21.11;46.97;101216.00;2112316;28;3982;-33
2021/04/01 01:30:58;;;;;;;;;;;;;;;21.12;46.93;101222.56;2113561;28;2635;-35
2021/04/01 01:31:59;;;;;;;;;;;;;;;21.12;47.01;101212.00;2113181;28;2176;-32
2021/04/01 01:33:05;;;;;;;;;;;;;;;21.12;47.12;101214.00;2113820;28;1942;-36
2021/04/01 01:34:06;;;;;;;;;;;;;;;21.13;47.15;101216.50;2114754;28;1984;-35
2021/04/01 01:35:06;;;;;;;;;;;;;;;21.13;47.20;101215.66;2115149;28;1710;-35
2021/04/01 01:36:07;;;;;;;;;;;;;;;21.13;47.19;101215.66;2112735;28;2240;-36
2021/04/01 01:37:08;;;;;;;;;;;;;;;21.14;47.25;101220.16;2113126;28;1648;-32
2021/04/01 01:38:09;;;;;;;;;;;;;;;21.13;47.28;101215.66;2115763;28;1371;-34
2021/04/01 01:39:09;;;;;;;;;;;;;;;21.12;47.18;101222.56;2115238;28;1279;-33
2021/04/01 01:40:10;;;;;;;;;;;;;;;21.10;47.13;101217.19;2115249;28;1676;-34
2021/04/01 01:41:11;;;;;;;;;;;;;;;21.11;47.11;101213.16;2112909;28;2314;-38
2021/04/01 01:42:12;;;;;;;;;;;;;;;21.12;47.10;101214.00;2115243;28;1238;-33
2021/04/01 01:43:12;;;;;;;;;;;;;;;21.12;47.15;101214.00;2113835;28;1541;-33
2021/04/01 01:44:13;;;;;;;;;;;;;;;21.13;47.11;101215.66;2115133;28;1134;-35
2021/04/01 01:45:14;;;;;;;;;;;;;;;21.12;47.21;101208.31;2112871;28;1667;-33
2021/04/01 01:46:14;;;;;;;;;;;;;;;21.13;47.29;101204.28;2114772;28;2037;-33
2021/04/01 01:47:15;;;;;;;;;;;;;;;21.14;47.18;101205.94;2106660;28;1095;-33
2021/04/01 01:48:16;;;;;;;;;;;;;;;21.13;47.26;101209.97;2111778;28;1627;-31
2021/04/01 01:49:17;;;;;;;;;;;;;;;21.14;47.12;101200.25;2112752;28;1346;-36
2021/04/01 01:50:17;;;;;;;;;;;;;;;21.14;47.33;101200.25;2114691;28;1329;-32
2021/04/01 01:51:20;;;;;;;;;;;;;;;21.15;47.18;101207.63;2113803;28;2149;-33
2021/04/01 01:52:20;;;;;;;;;;;;;;;21.15;47.18;101207.63;2113573;28;2256;-37
2021/04/01 01:53:21;;;;;;;;;;;;;;;21.16;47.36;101214.97;2114823;28;1952;-31
2021/04/01 01:54:22;;;;;;;;;;;;;;;21.16;47.37;101211.31;2114663;28;1398;-32
2021/04/01 01:55:23;;;;;;;;;;;;;;;21.16;47.39;101211.31;2112279;28;2119;-33
2021/04/01 01:56:24;;;;;;;;;;;;;;;21.17;47.31;101212.97;2112982;28;2282;-35
2021/04/01 01:57:24;;;;;;;;;;;;;;;21.16;47.33;101214.97;2112502;28;1668;-32
2021/04/01 01:58:25;;;;;;;;;;;;;;;21.17;47.52;101215.81;2115319;28;1120;-34
2021/04/01 01:59:29;;;;;;;;;;;;;;;21.16;47.37;101212.13;2114636;28;2090;-32
2021/04/01 02:00:29;;;;;;;;;;;;;;;21.17;47.34;101208.09;2109041;28;2134;-32
2021/04/01 02:01:30;;;;;;;;;;;;;;;21.17;47.39;101210.13;2115375;28;1602;-37
2021/04/01 02:02:31;;;;;;;;;;;;;;;21.17;47.50;101207.28;2115217;28;1086;-32
2021/04/01 02:03:32;;;;;;;;;;;;;;;21.18;47.59;101211.81;2115266;28;1253;-33
2021/04/01 02:04:33;;;;;;;;;;;;;;;21.18;47.66;101208.94;2114294;28;2131;-35
2021/04/01 02:05:33;;;;;;;;;;;;;;;21.18;47.52;101212.63;2115136;28;1413;-31
2021/04/01 02:06:34;;;;;;;;;;;;;;;21.18;47.61;101206.09;2111823;28;2154;-36
2021/04/01 02:07:35;;;;;;;;;;;;;;;21.18;47.41;101206.94;2114464;28;1426;-33
2021/04/01 02:08:36;;;;;;;;;;;;;;;21.19;47.38;101207.75;2110171;28;2245;-33
2021/04/01 02:09:36;;;;;;;;;;;;;;;21.18;47.40;101206.09;2111431;28;2425;-33
2021/04/01 02:10:37;;;;;;;;;;;;;;;21.18;47.52;101206.94;2112034;28;2200;-31
2021/04/01 02:11:38;;;;;;;;;;;;;;;21.18;47.62;101206.09;2114489;28;2162;-33
2021/04/01 02:12:38;;;;;;;;;;;;;;;21.18;47.59;101204.09;2110578;28;2511;-38
2021/04/01 02:13:39;;;;;;;;;;;;;;;21.18;47.55;101201.25;2115365;28;1975;-35
2021/04/01 02:14:40;;;;;;;;;;;;;;;21.19;47.72;101197.22;2114475;28;2372;-35
2021/04/01 02:15:41;;;;;;;;;;;;;;;21.19;47.64;101197.22;2112857;28;2347;-36
2021/04/01 02:16:42;;;;;;;;;;;;;;;21.19;47.73;101191.53;2114968;28;1224;-32
2021/04/01 02:17:42;;;;;;;;;;;;;;;21.20;47.74;101190.38;2114794;28;1075;-34
2021/04/01 02:18:43;;;;;;;;;;;;;;;21.21;47.88;101194.03;2115080;28;1456;-32
2021/04/01 02:19:44;;;;;;;;;;;;;;;21.19;47.66;101191.53;2114371;28;2486;-33
2021/04/01 02:20:46;;;;;;;;;;;;;;;21.20;47.81;101190.38;2111504;28;2202;-35
2021/04/01 02:21:47;;;;;;;;;;;;;;;21.19;47.80;101185.00;2112732;28;2265;-30
2021/04/01 02:22:48;;;;;;;;;;;;;;;21.19;47.80;101188.66;2112027;28;1462;-35
2021/04/01 02:23:48;;;;;;;;;;;;;;;21.19;47.74;101182.16;2113786;27;2204;-39
2021/04/01 02:24:49;;;;;;;;;;;;;;;21.19;47.76;101190.69;2113045;28;2166;-36
2021/04/01 02:25:50;;;;;;;;;;;;;;;21.18;47.74;101184.19;2115075;28;1309;-34
2021/04/01 02:26:51;;;;;;;;;;;;;;;21.19;47.79;101185.84;2113257;28;2076;-34
2021/04/01 02:27:51;;;;;;;;;;;;;;;21.19;47.88;101190.69;2114169;28;1323;-33
2021/04/01 02:28:52;;;;;;;;;;;;;;;21.19;47.67;101187.84;2114863;28;1255;-33
2021/04/01 02:29:53;;;;;;;;;;;;;;;21.19;47.96;101182.97;2113259;28;3792;-35
2021/04/01 02:30:54;;;;;;;;;;;;;;;21.19;47.94;101187.84;2114355;28;1163;-33
2021/04/01 02:31:54;;;;;;;;;;;;;;;21.19;47.84;101185.84;2112551;28;2111;-36
2021/04/01 02:32:55;;;;;;;;;;;;;;;21.19;47.67;101191.53;2115009;28;1985;-30
2021/04/01 02:33:57;;;;;;;;;;;;;;;21.19;47.90;101191.53;2114185;28;1411;-32
2021/04/01 02:34:57;;;;;;;;;;;;;;;21.20;47.74;101186.66;2113165;28;1382;-35
2021/04/01 02:35:58;;;;;;;;;;;;;;;21.19;47.76;101187.84;2111649;28;2175;-34
2021/04/01 02:36:59;;;;;;;;;;;;;;;21.20;47.89;101186.66;2115039;28;1403;-35
2021/04/01 02:37:59;;;;;;;;;;;;;;;21.18;47.71;101189.88;2113638;28;2226;-36
2021/04/01 02:39:00;;;;;;;;;;;;;;;21.19;47.85;101188.66;2113052;28;2258;-31
2021/04/01 02:40:01;;;;;;;;;;;;;;;21.18;47.84;101184.19;2115317;28;1497;-34
2021/04/01 02:41:02;;;;;;;;;;;;;;;21.19;47.92;101185.84;2114075;28;2304;-33
2021/04/01 02:42:02;;;;;;;;;;;;;;;21.19;47.83;101185.84;2109161;28;2164;-32
2021/04/01 02:43:03;;;;;;;;;;;;;;;21.18;47.72;101181.31;2111631;28;2384;-33
2021/04/01 02:44:04;;;;;;;;;;;;;;;21.18;47.83;101192.72;2115182;28;1154;-34
2021/04/01 02:45:05;;;;;;;;;;;;;;;21.17;47.81;101193.88;2112072;28;2154;-35
2021/04/01 02:46:06;;;;;;;;;;;;;;;21.18;47.81;101189.88;2109542;28;1234;-31
2021/04/01 02:47:06;;;;;;;;;;;;;;;21.19;47.74;101193.53;2114579;28;1557;-37
2021/04/01 02:48:07;;;;;;;;;;;;;;;21.18;47.82;101192.72;2111678;28;2122;-36
2021/04/01 02:49:08;;;;;;;;;;;;;;;21.19;47.78;101202.06;2114900;28;1306;-35
2021/04/01 02:50:08;;;;;;;;;;;;;;;21.19;47.82;101199.22;2114780;28;1247;-34
2021/04/01 02:51:09;;;;;;;;;;;;;;;21.19;47.98;101200.06;2111858;28;2230;-35
2021/04/01 02:52:10;;;;;;;;;;;;;;;21.19;47.94;101191.53;2114968;28;1157;-31
2021/04/01 02:53:11;;;;;;;;;;;;;;;21.19;47.94;101191.53;2114438;28;1977;-38
2021/04/01 02:54:12;;;;;;;;;;;;;;;21.19;47.81;101193.53;2114913;28;1346;-38
2021/04/01 02:55:12;;;;;;;;;;;;;;;21.19;47.99;101196.38;2114049;28;2197;-38
2021/04/01 02:56:13;;;;;;;;;;;;;;;21.19;47.92;101188.66;2113019;28;2177;-34
2021/04/01 02:57:14;;;;;;;;;;;;;;;21.19;47.76;101185.84;2115052;28;1168;-30
2021/04/01 02:58:15;;;;;;;;;;;;;;;21.19;47.80;101196.38;2112234;28;2201;-34
2021/04/01 02:59:16;;;;;;;;;;;;;;;21.19;47.74;101187.84;2115309;28;1393;-35
2021/04/01 03:00:18;;;;;;;;;;;;;;;21.18;47.93;101187.03;2108951;28;2160;-34
2021/04/01 03:01:21;;;;;;;;;;;;;;;21.19;47.90;101196.38;2112485;28;2170;-35
2021/04/01 03:02:24;;;;;;;;;;;;;;;21.18;47.88;101194.72;2112288;28;2110;-34
2021/04/01 03:03:29;;;;;;;;;;;;;;;21.18;47.77;101201.25;2112190;28;2261;-33
2021/04/01 03:04:31;;;;;;;;;;;;;;;21.18;47.80;101204.09;2115099;28;1554;-32
2021/04/01 03:05:32;;;;;;;;;;;;;;;21.18;47.76;101204.09;2113661;28;2206;-32
2021/04/01 03:06:33;;;;;;;;;;;;;;;21.17;47.80;101199.56;2110323;28;2482;-34
2021/04/01 03:07:34;;;;;;;;;;;;;;;21.17;47.86;101193.88;2116543;28;2579;-33
2021/04/01 03:08:38;;;;;;;;;;;;;;;21.17;47.71;101199.56;2110757;28;2212;-36
2021/04/01 03:09:39;;;;;;;;;;;;;;;21.18;47.77;101189.88;2114049;28;2164;-35
2021/04/01 03:10:40;;;;;;;;;;;;;;;21.18;47.77;101183.34;2110161;28;2162;-37
2021/04/01 03:11:41;;;;;;;;;;;;;;;21.18;47.89;101189.03;2112823;28;2576;-32
2021/04/01 03:12:41;;;;;;;;;;;;;;;21.18;47.77;101187.03;2111332;28;1642;-34
2021/04/01 03:13:42;;;;;;;;;;;;;;;21.18;47.79;101198.41;2116489;28;1936;-34
2021/04/01 03:14:43;;;;;;;;;;;;;;;21.18;47.86;101189.03;2116082;28;1335;-34
2021/04/01 03:15:44;;;;;;;;;;;;;;;21.18;47.80;101195.56;2115288;28;2172;-37
2021/04/01 03:16:45;;;;;;;;;;;;;;;21.17;47.92;101193.88;2114050;28;2340;-34
2021/04/01 03:17:46;;;;;;;;;;;;;;;21.18;47.92;101189.03;2114842;28;1666;-29
2021/04/01 03:18:47;;;;;;;;;;;;;;;21.18;47.84;101175.63;2116443;28;1237;-36
2021/04/01 03:19:48;;;;;;;;;;;;;;;21.18;47.95;101180.50;2116616;28;1205;-34
2021/04/01 03:20:48;;;;;;;;;;;;;;;21.19;47.95;101179.31;2112135;28;2200;-33
2021/04/01 03:21:49;;;;;;;;;;;;;;;21.19;47.79;101176.47;2116114;27;1225;-34
2021/04/01 03:22:50;;;;;;;;;;;;;;;21.19;47.90;101179.31;2116078;28;1423;-33
2021/04/01 03:23:51;;;;;;;;;;;;;;;21.18;47.89;101169.94;2111464;28;2315;-35
2021/04/01 03:24:52;;;;;;;;;;;;;;;21.18;47.91;101172.78;2114441;28;1749;-35
2021/04/01 03:25:52;;;;;;;;;;;;;;;21.19;47.87;101174.44;2116297;28;1135;-35
2021/04/01 03:26:53;;;;;;;;;;;;;;;21.19;47.79;101173.63;2113873;28;2159;-39
2021/04/01 03:27:54;;;;;;;;;;;;;;;21.19;48.12;101176.47;2109831;28;1136;-33
2021/04/01 03:28:55;;;;;;;;;;;;;;;21.18;47.99;101169.94;2112873;28;2225;-31
2021/04/01 03:30:09;;;;;;;;;;;;;;;21.19;47.93;101179.31;2115738;28;4001;-31
2021/04/01 03:31:09;;;;;;;;;;;;;;;21.18;47.82;101178.47;2116346;28;1191;-34
2021/04/01 03:32:10;;;;;;;;;;;;;;;21.19;47.89;101182.16;2112261;28;2256;-32
2021/04/01 03:33:11;;;;;;;;;;;;;;;21.18;47.77;101181.31;2114866;28;2214;-37
2021/04/01 03:34:12;;;;;;;;;;;;;;;21.18;47.95;101172.78;2116548;28;1215;-35
2021/04/01 03:35:12;;;;;;;;;;;;;;;21.18;47.93;101183.34;2116215;28;1643;-33
2021/04/01 03:36:13;;;;;;;;;;;;;;;21.19;47.78;101182.16;2116041;28;1144;-33
2021/04/01 03:37:14;;;;;;;;;;;;;;;21.18;47.97;101175.63;2110407;28;2798;-36
2021/04/01 03:38:16;;;;;;;;;;;;;;;21.19;47.86;101179.31;2113340;28;2145;-33
2021/04/01 03:39:17;;;;;;;;;;;;;;;21.19;47.84;101180.13;2109187;28;1193;-31
2021/04/01 03:40:17;;;;;;;;;;;;;;;21.18;47.81;101184.19;2115912;28;1744;-33
2021/04/01 03:41:18;;;;;;;;;;;;;;;21.18;47.83;101178.47;2116552;28;1140;-34
2021/04/01 03:42:19;;;;;;;;;;;;;;;21.19;47.94;101179.31;2109808;28;2192;-38
2021/04/01 03:43:20;;;;;;;;;;;;;;;21.18;47.80;101177.66;2116249;28;1529;-37
2021/04/01 03:44:20;;;;;;;;;;;;;;;21.19;47.93;101180.13;2116968;27;2136;-35
2021/04/01 03:45:21;;;;;;;;;;;;;;;21.18;47.88;101172.78;2111856;28;2225;-35
2021/04/01 03:46:25;;;;;;;;;;;;;;;21.19;47.89;101174.44;2113735;28;2143;-36
2021/04/01 03:47:26;;;;;;;;;;;;;;;21.18;47.96;101172.78;2112920;28;2150;-33
2021/04/01 03:48:27;;;;;;;;;;;;;;;21.19;48.01;101177.28;2112005;28;2146;-31
2021/04/01 03:49:28;;;;;;;;;;;;;;;21.19;47.98;101182.16;2115725;28;1247;-32
2021/04/01 03:50:29;;;;;;;;;;;;;;;21.19;47.83;101173.63;2116053;28;1554;-36
2021/04/01 03:51:30;;;;;;;;;;;;;;;21.19;47.99;101179.31;2115366;28;2182;-34
2021/04/01 03:52:31;;;;;;;;;;;;;;;21.18;47.86;101178.47;2115712;28;2158;-35
2021/04/01 03:53:31;;;;;;;;;;;;;;;21.18;47.95;101175.63;2113381;28;2100;-33
2021/04/01 03:54:32;;;;;;;;;;;;;;;21.18;47.91;101175.63;2116059;28;1469;-31
2021/04/01 03:55:40;;;;;;;;;;;;;;;21.18;48.08;101175.63;2108401;28;2359;-33
2021/04/01 03:56:48;;;;;;;;;;;;;;;21.19;47.98;101174.44;2111379;28;2618;-34
2021/04/01 03:57:50;;;;;;;;;;;;;;;21.18;48.00;101172.78;2112033;28;2405;-31
2021/04/01 04:00:05;;;;;;;;;;;;;;;21.18;48.04;101178.47;2114450;28;2203;-32
2021/04/01 04:03:08;;;;;;;;;;;;;;;21.18;48.04;101169.94;2115993;28;1290;-34
2021/04/01 04:04:05;;;;;;;;;;;;;;;21.20;48.24;101175.28;2114007;28;1447;-32
2021/04/01 04:06:52;;;;;;;;;;;;;;;21.19;48.16;101168.75;2109450;28;2240;-35
2021/04/01 04:08:46;;;;;;;;;;;;;;;21.19;48.23;101177.28;2111485;28;2770;-33
2021/04/01 04:10:58;;;;;;;;;;;;;;;21.19;48.16;101170.78;2113728;28;2162;-39
2021/04/01 04:14:37;;;;;;;;;;;;;;;21.19;48.14;101171.59;2105881;28;2085;-32
2021/04/01 04:15:38;;;;;;;;;;;;;;;21.19;48.16;101167.94;2116053;28;1328;-34
2021/04/01 04:16:41;;;;;;;;;;;;;;;21.19;48.31;101168.75;2113286;28;2250;-31
2021/04/01 04:17:42;;;;;;;;;;;;;;;21.19;48.25;101165.91;2112385;28;2569;-33
2021/04/01 04:18:43;;;;;;;;;;;;;;;21.19;48.23;101168.75;2111094;28;2084;-33
2021/04/01 04:19:43;;;;;;;;;;;;;;;21.19;48.27;101168.75;2114459;28;2033;-32
2021/04/01 04:20:44;;;;;;;;;;;;;;;21.19;48.19;101163.06;2111543;28;2445;-33
2021/04/01 04:21:45;;;;;;;;;;;;;;;21.20;48.33;101167.59;2111824;28;1935;-33
2021/04/01 04:22:46;;;;;;;;;;;;;;;21.19;48.21;101165.09;2116218;28;1640;-36
2021/04/01 04:23:48;;;;;;;;;;;;;;;21.19;48.34;101162.25;2115716;28;1226;-32
2021/04/01 04:24:49;;;;;;;;;;;;;;;21.19;48.43;101171.59;2123930;27;1461;-33
2021/04/01 04:25:51;;;;;;;;;;;;;;;21.19;48.39;101165.91;2122400;27;2392;-35
2021/04/01 04:26:52;;;;;;;;;;;;;;;21.20;48.49;101170.44;2116188;28;1369;-31
2021/04/01 04:28:38;;;;;;;;;;;;;;;21.20;48.32;101170.44;2113748;28;2155;-34
2021/04/01 04:29:13;;;;;;;;;;;;;;;21.19;48.39;101168.75;2103312;28;2321;-36
2021/04/01 04:30:14;;;;;;;;;;;;;;;21.21;48.49;101165.56;2108299;28;2146;-31
2021/04/01 04:31:15;;;;;;;;;;;;;;;21.20;48.56;101167.59;2112825;28;2280;-34
2021/04/01 04:32:15;;;;;;;;;;;;;;;21.20;48.37;101163.88;2110884;28;2224;-38
2021/04/01 04:33:16;;;;;;;;;;;;;;;21.21;48.55;101165.56;2112106;28;2508;-38
2021/04/01 04:34:17;;;;;;;;;;;;;;;21.20;48.54;101161.03;2112910;28;1941;-34
2021/04/01 04:35:18;;;;;;;;;;;;;;;21.21;48.45;101160.72;2116128;28;1738;-32
2021/04/01 04:36:18;;;;;;;;;;;;;;;21.20;48.44;101164.75;2112511;28;2113;-34
2021/04/01 04:37:19;;;;;;;;;;;;;;;21.20;48.60;101161.91;2114605;28;2175;-36
2021/04/01 04:38:20;;;;;;;;;;;;;;;21.20;48.61;101159.06;2111107;28;2146;-31
2021/04/01 04:39:21;;;;;;;;;;;;;;;21.20;48.78;101161.91;2112402;28;1310;-33
2021/04/01 04:40:21;;;;;;;;;;;;;;;21.20;48.71;101161.91;2111421;28;2169;-33
2021/04/01 04:41:22;;;;;;;;;;;;;;;21.21;48.75;101159.88;2113029;28;2195;-36
2021/04/01 04:42:23;;;;;;;;;;;;;;;21.21;48.77;101172.09;2113233;28;2432;-35
2021/04/01 04:43:24;;;;;;;;;;;;;;;21.21;48.91;101160.72;2112792;28;2523;-36
2021/04/01 04:44:25;;;;;;;;;;;;;;;21.22;48.79;101161.53;2114383;28;1807;-32
2021/04/01 04:45:25;;;;;;;;;;;;;;;21.21;48.96;101160.72;2112326;28;2187;-33
2021/04/01 04:46:26;;;;;;;;;;;;;;;21.21;48.80;101160.72;2112295;28;1600;-32
2021/04/01 04:47:27;;;;;;;;;;;;;;;21.22;48.78;101156.69;2115375;28;2067;-35
2021/04/01 04:48:28;;;;;;;;;;;;;;;21.20;48.85;101147.69;2112646;28;2230;-33
2021/04/01 04:49:28;;;;;;;;;;;;;;;21.21;48.85;101146.50;2110311;28;2103;-34
2021/04/01 04:50:29;;;;;;;;;;;;;;;21.20;48.94;101147.69;2119721;27;2352;-34
2021/04/01 04:51:30;;;;;;;;;;;;;;;21.21;49.00;101140.78;2120862;27;1645;-31
2021/04/01 04:52:32;;;;;;;;;;;;;;;21.22;49.04;101141.63;2113841;28;2155;-34
2021/04/01 04:53:33;;;;;;;;;;;;;;;21.21;49.10;101152.19;2113395;28;2477;-35
2021/04/01 04:54:35;;;;;;;;;;;;;;;21.20;49.05;101147.69;2111042;28;2303;-33
2021/04/01 04:55:38;;;;;;;;;;;;;;;21.21;49.09;101148.50;2113535;28;2550;-32
2021/04/01 04:56:44;;;;;;;;;;;;;;;21.21;49.15;101151.34;2115565;28;1988;-33
2021/04/01 04:58:03;;;;;;;;;;;;;;;21.22;49.01;101153.00;2116053;28;1546;-35
2021/04/01 04:59:11;;;;;;;;;;;;;;;21.21;49.14;101155.03;2112448;28;1548;-35
2021/04/01 05:05:00;;;;;;;;;;;;;;;21.22;49.24;101161.53;2112695;28;2569;-34
2021/04/01 05:06:03;;;;;;;;;;;;;;;21.22;49.16;101153.00;2112505;28;2352;-33
2021/04/01 05:07:04;;;;;;;;;;;;;;;21.22;49.41;101159.53;2111649;28;2146;-34
2021/04/01 05:08:05;;;;;;;;;;;;;;;21.22;49.40;101159.53;2112219;28;2224;-34
2021/04/01 05:09:06;;;;;;;;;;;;;;;21.22;49.43;101161.53;2108288;28;3791;-32
2021/04/01 05:12:15;;;;;;;;;;;;;;;21.24;49.38;101165.72;2114256;28;2158;-29
2021/04/01 05:13:16;;;;;;;;;;;;;;;21.22;49.40;101162.38;2111080;28;2339;-30
2021/04/01 05:14:17;;;;;;;;;;;;;;;21.23;49.43;101160.38;2113875;28;2578;-32
2021/04/01 05:15:20;;;;;;;;;;;;;;;21.23;49.53;101168.91;2115402;28;1289;-35
2021/04/01 05:16:21;;;;;;;;;;;;;;;21.22;49.51;101168.06;2109332;28;2161;-29
2021/04/01 05:17:22;;;;;;;;;;;;;;;21.24;49.40;101168.56;2111349;28;2611;-31
2021/04/01 05:18:26;;;;;;;;;;;;;;;21.24;49.46;101176.25;2115774;28;1343;-30
2021/04/01 05:19:29;;;;;;;;;;;;;;;21.22;49.47;101168.06;2111254;27;2158;-30
2021/04/01 05:20:30;;;;;;;;;;;;;;;21.24;49.52;101170.56;2119639;27;1364;-30
2021/04/01 05:22:15;;;;;;;;;;;;;;;21.24;49.68;101177.09;2109979;28;2387;-30
2021/04/01 05:23:02;;;;;;;;;;;;;;;21.22;49.84;101173.75;2103135;28;2644;-30
2021/04/01 05:24:06;;;;;;;;;;;;;;;21.24;49.80;101179.09;2114708;28;2326;-31
2021/04/01 05:25:07;;;;;;;;;;;;;;;21.24;49.72;101173.41;2114671;28;2071;-32
2021/04/01 05:26:27;;;;;;;;;;;;;;;21.24;49.59;101171.41;2109466;28;2175;-30
2021/04/01 05:28:42;;;;;;;;;;;;;;;21.22;49.59;101162.38;2114781;28;1875;-31
2021/04/01 05:29:59;;;;;;;;;;;;;;;21.23;49.59;101157.53;2115002;28;3695;-31
2021/04/01 05:31:03;;;;;;;;;;;;;;;21.23;49.64;101158.38;2115719;28;1222;-34
2021/04/01 05:32:05;;;;;;;;;;;;;;;21.23;49.42;101171.75;2115426;28;1801;-30
2021/04/01 05:33:05;;;;;;;;;;;;;;;21.22;49.64;101170.91;2115278;28;1565;-31
2021/04/01 05:34:07;;;;;;;;;;;;;;;21.22;49.49;101170.91;2116831;27;1984;-31
2021/04/01 05:35:10;;;;;;;;;;;;;;;21.22;49.55;101165.22;2119380;27;1737;-32
2021/04/01 05:36:16;;;;;;;;;;;;;;;21.24;49.76;101170.56;2114638;28;1863;-30
2021/04/01 05:37:17;;;;;;;;;;;;;;;21.24;49.57;101170.56;2110456;28;2463;-32
2021/04/01 05:38:17;;;;;;;;;;;;;;;21.22;49.46;101175.78;2115254;28;1553;-29
2021/04/01 05:39:32;;;;;;;;;;;;;;;21.22;49.57;101173.75;2113201;28;1893;-32